createdAt,value
2023-04-18T00:00:49.412Z,15.95
2023-04-18T00:02:54.324Z,11.93
2023-04-18T00:04:57.123Z,13.50
2023-04-18T00:07:04.615Z,14.85
2023-04-18T00:09:16.661Z,11.43
2023-04-18T00:11:19.400Z,11.20
2023-04-18T00:13:22.233Z,12.82
2023-04-18T00:15:30.583Z,12.48
2023-04-18T00:17:33.303Z,13.50
2023-04-18T00:19:36.842Z,17.85
2023-04-18T00:21:44.994Z,12.52
2023-04-18T00:23:56.946Z,11.25
2023-04-18T00:25:59.566Z,21.75
2023-04-18T00:28:02.188Z,15.40
2023-04-18T00:30:05.373Z,17.45
2023-04-18T00:32:10.762Z,14.43
2023-04-18T00:34:14.611Z,13.20
2023-04-18T00:36:17.316Z,15.52
2023-04-18T00:38:21.029Z,11.20
2023-04-18T00:40:24.038Z,16.67
2023-04-18T00:42:28.210Z,20.00
2023-04-18T00:46:34.674Z,20.27
2023-04-18T00:48:40.499Z,20.55
2023-04-18T00:50:45.447Z,21.00
2023-04-18T00:52:48.636Z,18.08
2023-04-18T00:54:51.331Z,21.40
2023-04-18T00:56:54.582Z,17.67
2023-04-18T00:58:59.508Z,21.58
2023-04-18T01:01:02.113Z,16.98
2023-04-18T01:03:04.945Z,22.05
2023-04-18T01:05:22.699Z,33.88
2023-04-18T01:07:25.751Z,15.10
2023-04-18T01:09:32.531Z,12.77
2023-04-18T01:11:36.205Z,18.35
2023-04-18T01:13:38.738Z,15.30
2023-04-18T01:15:42.761Z,15.00
2023-04-18T01:17:45.690Z,15.65
2023-04-18T01:19:49.241Z,43.93
2023-04-18T01:21:54.627Z,20.88
2023-04-18T01:24:01.952Z,16.95
2023-04-18T01:26:08.419Z,19.90
2023-04-18T01:28:12.344Z,19.63
2023-04-18T01:30:14.893Z,14.50
2023-04-18T01:32:20.288Z,15.48
2023-04-18T01:34:23.339Z,21.67
2023-04-18T01:36:32.096Z,15.07
2023-04-18T01:38:34.654Z,15.07
2023-04-18T01:40:37.876Z,16.50
2023-04-18T01:42:43.020Z,18.00
2023-04-18T01:44:47.734Z,16.95
2023-04-18T01:46:50.369Z,14.93
2023-04-18T01:48:52.938Z,16.67
2023-04-18T01:50:57.824Z,20.13
2023-04-18T01:53:00.673Z,24.92
2023-04-18T01:55:04.193Z,41.47
2023-04-18T01:57:13.882Z,21.50
2023-04-18T01:59:19.033Z,18.13
2023-04-18T02:01:21.816Z,25.15
2023-04-18T02:03:25.117Z,32.40
2023-04-18T02:05:28.347Z,14.82
2023-04-18T02:07:30.895Z,21.27
2023-04-18T02:09:33.458Z,21.40
2023-04-18T02:11:39.171Z,12.20
2023-04-18T02:13:42.449Z,22.17
2023-04-18T02:15:49.037Z,17.57
2023-04-18T02:17:51.852Z,16.85
2023-04-18T02:19:54.677Z,17.67
2023-04-18T02:21:57.240Z,13.10
2023-04-18T02:23:59.846Z,22.67
2023-04-18T02:26:02.450Z,17.10
2023-04-18T02:28:07.744Z,19.50
2023-04-18T02:30:11.189Z,12.68
2023-04-18T02:32:16.968Z,12.00
2023-04-18T02:34:21.054Z,16.30
2023-04-18T02:36:26.272Z,13.05
2023-04-18T02:38:29.101Z,13.70
2023-04-18T02:40:33.250Z,14.50
2023-04-18T02:42:36.671Z,16.88
2023-04-18T02:44:43.546Z,10.27
2023-04-18T02:46:47.027Z,13.77
2023-04-18T02:48:52.168Z,18.65
2023-04-18T02:51:03.633Z,12.40
2023-04-18T02:53:08.671Z,12.68
2023-04-18T02:55:32.289Z,11.60
2023-04-18T02:57:36.248Z,11.80
2023-04-18T02:59:59.070Z,13.25
2023-04-18T03:02:21.242Z,12.95
2023-04-18T03:04:32.095Z,14.32
2023-04-18T03:06:37.589Z,12.00
2023-04-18T03:08:41.285Z,16.13
2023-04-18T03:10:44.953Z,12.43
2023-04-18T03:12:48.211Z,12.38
2023-04-18T03:14:53.848Z,13.07
2023-04-18T03:16:57.213Z,14.07
2023-04-18T03:19:05.678Z,11.48
2023-04-18T03:21:12.220Z,17.50
2023-04-18T03:23:14.968Z,15.40
2023-04-18T03:25:19.120Z,16.58
2023-04-18T03:27:27.128Z,15.05
2023-04-18T03:29:30.196Z,12.55
2023-04-18T03:31:33.759Z,14.77
2023-04-18T03:33:36.896Z,13.27
2023-04-18T03:35:44.840Z,23.30
2023-04-18T03:37:49.995Z,22.95
2023-04-18T03:40:00.248Z,12.80
2023-04-18T03:42:05.179Z,15.50
2023-04-18T03:44:09.486Z,13.43
2023-04-18T03:46:13.970Z,13.20
2023-04-18T03:48:16.686Z,18.80
2023-04-18T03:50:21.409Z,10.88
2023-04-18T03:52:27.969Z,14.35
2023-04-18T03:54:34.641Z,10.35
2023-04-18T03:56:37.440Z,10.90
2023-04-18T03:58:40.184Z,13.73
2023-04-18T04:00:46.878Z,16.15
2023-04-18T04:02:49.639Z,12.73
2023-04-18T04:04:56.301Z,11.88
2023-04-18T04:06:59.557Z,14.63
2023-04-18T04:09:02.321Z,13.68
2023-04-18T04:11:09.194Z,16.63
2023-04-18T04:13:16.608Z,13.85
2023-04-18T04:15:19.422Z,15.18
2023-04-18T04:17:27.633Z,12.75
2023-04-18T04:19:30.553Z,11.57
2023-04-18T04:21:44.855Z,10.75
2023-04-18T04:23:50.671Z,9.40
2023-04-18T04:26:08.521Z,10.75
2023-04-18T04:28:26.393Z,11.52
2023-04-18T04:30:34.577Z,17.50
2023-04-18T04:32:39.411Z,12.00
2023-04-18T04:34:42.659Z,11.45
2023-04-18T04:36:48.337Z,13.40
2023-04-18T04:38:52.508Z,28.92
2023-04-18T04:41:00.782Z,10.40
2023-04-18T04:43:06.836Z,10.32
2023-04-18T04:45:13.156Z,11.43
2023-04-18T04:47:15.881Z,12.32
2023-04-18T04:51:23.650Z,10.98
2023-04-18T04:53:30.625Z,14.77
2023-04-18T04:55:35.592Z,11.38
2023-04-18T04:57:42.451Z,14.60
2023-04-18T05:00:09.234Z,11.07
2023-04-18T05:02:12.167Z,10.48
2023-04-18T05:04:15.373Z,10.30
2023-04-18T05:06:25.378Z,11.80
2023-04-18T05:08:29.975Z,13.32
2023-04-18T05:10:32.880Z,15.57
2023-04-18T05:12:35.706Z,10.02
2023-04-18T05:14:41.586Z,10.10
2023-04-18T05:16:46.783Z,12.38
2023-04-18T05:18:49.490Z,10.90
2023-04-18T05:20:52.395Z,11.88
2023-04-18T05:22:55.182Z,15.25
2023-04-18T05:25:03.999Z,14.27
2023-04-18T05:27:18.107Z,11.00
2023-04-18T05:29:20.717Z,11.45
2023-04-18T05:31:23.532Z,12.63
2023-04-18T05:33:29.501Z,13.35
2023-04-18T05:35:32.380Z,11.82
2023-04-18T05:37:36.077Z,11.07
2023-04-18T05:39:38.732Z,17.73
2023-04-18T05:41:41.540Z,13.98
2023-04-18T05:43:48.381Z,10.77
2023-04-18T05:46:00.859Z,16.02
2023-04-18T05:48:03.672Z,12.80
2023-04-18T05:50:10.377Z,14.48
2023-04-18T05:52:17.533Z,13.63
2023-04-18T05:54:25.294Z,14.93
2023-04-18T05:56:28.026Z,12.18
2023-04-18T05:58:30.842Z,13.32
2023-04-18T06:00:33.392Z,12.50
2023-04-18T06:02:36.051Z,16.35
2023-04-18T06:04:38.868Z,11.68
2023-04-18T06:06:44.220Z,12.68
2023-04-18T06:08:46.805Z,14.18
2023-04-18T06:10:49.344Z,10.40
2023-04-18T06:12:51.920Z,10.98
2023-04-18T06:14:54.326Z,11.18
2023-04-18T06:16:56.866Z,12.93
2023-04-18T06:19:01.199Z,9.80
2023-04-18T06:21:04.094Z,10.75
2023-04-18T06:23:09.267Z,14.40
2023-04-18T06:25:11.909Z,11.05
2023-04-18T06:27:27.768Z,11.15
2023-04-18T06:29:34.672Z,12.07
2023-04-18T06:31:38.680Z,9.23
2023-04-18T06:33:41.488Z,40.47
2023-04-18T06:35:44.154Z,12.25
2023-04-18T06:37:46.613Z,81.03
2023-04-18T06:39:51.735Z,35.80
2023-04-18T06:41:54.340Z,22.75
2023-04-18T06:44:04.635Z,12.57
2023-04-18T06:46:07.496Z,11.10
2023-04-18T06:48:10.860Z,21.58
2023-04-18T06:50:13.961Z,21.40
2023-04-18T06:52:18.262Z,46.53
2023-04-18T06:54:24.551Z,13.20
2023-04-18T06:56:29.881Z,22.63
2023-04-18T06:58:32.396Z,35.92
2023-04-18T07:00:34.968Z,13.52
2023-04-18T07:02:39.282Z,20.13
2023-04-18T07:04:43.914Z,71.25
2023-04-18T07:06:48.729Z,39.60
2023-04-18T07:08:53.319Z,34.67
2023-04-18T07:10:56.829Z,17.40
2023-04-18T07:13:01.937Z,102.93
2023-04-18T07:15:05.317Z,90.32
2023-04-18T07:17:07.965Z,30.23
2023-04-18T07:19:10.466Z,109.20
2023-04-18T07:21:13.191Z,67.22
2023-04-18T07:23:17.765Z,35.80
2023-04-18T07:25:20.237Z,40.13
2023-04-18T07:27:22.979Z,80.18
2023-04-18T07:29:28.348Z,47.60
2023-04-18T07:31:31.494Z,56.15
2023-04-18T07:33:35.228Z,29.83
2023-04-18T07:35:38.010Z,23.85
2023-04-18T07:37:40.462Z,29.63
2023-04-18T07:39:43.054Z,190.63
2023-04-18T07:41:45.604Z,25.70
2023-04-18T07:43:48.037Z,222.80
2023-04-18T07:45:53.817Z,186.25
2023-04-18T07:47:56.952Z,49.05
2023-04-18T07:49:59.477Z,278.73
2023-04-18T07:52:02.038Z,39.80
2023-04-18T07:54:04.679Z,74.90
2023-04-18T07:56:08.169Z,20.23
2023-04-18T07:58:10.789Z,19.83
2023-04-18T08:00:15.105Z,21.10
2023-04-18T08:06:26.399Z,38.15
2023-04-18T08:08:28.849Z,84.25
2023-04-18T08:10:31.325Z,17.40
2023-04-18T08:12:33.900Z,22.98
2023-04-18T08:14:36.395Z,24.38
2023-04-18T08:16:39.229Z,90.57
2023-04-18T08:18:44.782Z,40.28
2023-04-18T08:20:49.790Z,85.97
2023-04-18T08:23:06.225Z,125.55
2023-04-18T08:25:11.711Z,90.43
2023-04-18T08:27:14.390Z,162.52
2023-04-18T08:29:16.917Z,177.15
2023-04-18T08:31:19.530Z,62.95
2023-04-18T08:33:22.741Z,108.60
2023-04-18T08:35:28.092Z,158.40
2023-04-18T08:37:31.679Z,127.25
2023-04-18T08:39:35.359Z,120.07
2023-04-18T08:41:39.823Z,108.65
2023-04-18T08:43:42.497Z,129.65
2023-04-18T08:45:46.092Z,181.10
2023-04-18T08:47:48.772Z,103.30
2023-04-18T08:49:53.830Z,119.45
2023-04-18T08:52:01.620Z,129.40
2023-04-18T08:54:06.436Z,29.85
2023-04-18T08:56:10.959Z,25.73
2023-04-18T08:58:22.454Z,146.00
2023-04-18T09:00:25.146Z,41.70
2023-04-18T09:02:39.198Z,126.32
2023-04-18T09:04:46.084Z,86.80
2023-04-18T09:06:53.389Z,176.50
2023-04-18T09:09:03.958Z,88.90
2023-04-18T09:11:21.683Z,48.17
2023-04-18T09:13:39.775Z,54.78
2023-04-18T09:15:42.357Z,55.65
2023-04-18T09:17:49.588Z,107.13
2023-04-18T09:19:54.670Z,114.22
2023-04-18T09:22:00.188Z,103.10
2023-04-18T09:26:34.220Z,74.45
2023-04-18T09:28:37.621Z,33.05
2023-04-18T09:30:42.323Z,191.75
2023-04-18T09:32:56.752Z,106.65
2023-04-18T09:35:03.938Z,129.57
2023-04-18T09:37:09.665Z,102.85
2023-04-18T09:39:28.610Z,81.55
2023-04-18T09:41:32.791Z,108.13
2023-04-18T09:43:35.356Z,62.53
2023-04-18T09:45:38.731Z,60.03
2023-04-18T09:47:43.771Z,95.70
2023-04-18T09:49:46.362Z,64.95
2023-04-18T09:51:51.148Z,98.88
2023-04-18T09:53:54.276Z,59.28
2023-04-18T09:56:00.144Z,76.40
2023-04-18T09:58:05.028Z,63.58
2023-04-18T10:00:28.097Z,92.63
2023-04-18T10:02:37.648Z,65.70
2023-04-18T10:04:40.859Z,60.47
2023-04-18T10:06:46.070Z,70.78
2023-04-18T10:08:49.281Z,86.32
2023-04-18T10:10:54.146Z,63.92
2023-04-18T10:13:01.380Z,131.82
2023-04-18T10:15:05.361Z,58.67
2023-04-18T10:17:11.262Z,88.47
2023-04-18T10:19:26.551Z,176.02
2023-04-18T10:21:29.488Z,56.13
2023-04-18T10:23:37.042Z,67.47
2023-04-18T10:25:49.945Z,80.38
2023-04-18T10:27:59.674Z,51.50
2023-04-18T10:30:02.258Z,67.28
2023-04-18T10:32:06.942Z,69.90
2023-04-18T10:34:11.018Z,71.80
2023-04-18T10:38:23.557Z,74.88
2023-04-18T10:40:33.773Z,50.30
2023-04-18T10:43:02.927Z,58.95
2023-04-18T10:45:18.669Z,60.00
2023-04-18T10:47:24.089Z,62.53
2023-04-18T10:49:31.022Z,77.18
2023-04-18T10:51:34.799Z,62.17
2023-04-18T10:53:37.304Z,72.10
2023-04-18T10:55:44.332Z,47.42
2023-04-18T10:57:49.046Z,67.50
2023-04-18T10:59:55.409Z,68.20
2023-04-18T11:02:19.248Z,73.22
2023-04-18T11:04:21.819Z,67.93
2023-04-18T11:06:27.326Z,52.20
2023-04-18T11:08:30.403Z,56.30
2023-04-18T11:10:32.952Z,63.90
2023-04-18T11:12:39.796Z,130.23
2023-04-18T11:14:44.755Z,93.57
2023-04-18T11:16:49.841Z,83.90
2023-04-18T11:18:54.695Z,63.10
2023-04-18T11:20:59.075Z,84.28
2023-04-18T11:23:01.774Z,109.07
2023-04-18T11:25:08.659Z,64.10
2023-04-18T11:27:12.521Z,93.45
2023-04-18T11:29:17.202Z,74.57
2023-04-18T11:31:23.321Z,65.07
2023-04-18T11:33:29.413Z,99.30
2023-04-18T11:35:37.727Z,68.78
2023-04-18T11:37:41.320Z,52.90
2023-04-18T11:39:44.319Z,84.18
2023-04-18T11:41:50.673Z,91.93
2023-04-18T11:43:53.169Z,69.43
2023-04-18T11:45:56.857Z,86.50
2023-04-18T11:48:01.116Z,94.25
2023-04-18T11:50:08.501Z,44.97
2023-04-18T11:52:13.669Z,74.93
2023-04-18T11:54:40.354Z,63.90
2023-04-18T11:56:48.718Z,44.42
2023-04-18T11:58:51.337Z,67.93
2023-04-18T12:00:54.814Z,49.10
2023-04-18T12:02:58.766Z,116.82
2023-04-18T12:05:01.727Z,73.78
2023-04-18T12:07:07.750Z,57.07
2023-04-18T12:09:14.053Z,103.07
2023-04-18T12:11:21.489Z,136.63
2023-04-18T12:13:31.481Z,62.50
2023-04-18T12:15:34.157Z,54.08
2023-04-18T12:17:38.185Z,73.55
2023-04-18T12:19:46.994Z,60.75
2023-04-18T12:21:56.982Z,48.83
2023-04-18T12:24:13.476Z,110.75
2023-04-18T12:26:23.120Z,54.38
2023-04-18T12:28:26.916Z,53.03
2023-04-18T12:30:31.178Z,60.08
2023-04-18T12:34:36.091Z,49.28
2023-04-18T12:36:38.543Z,63.67
2023-04-18T12:38:43.472Z,85.57
2023-04-18T12:40:49.234Z,62.55
2023-04-18T12:42:52.622Z,58.58
2023-04-18T12:44:55.178Z,56.15
2023-04-18T12:46:57.623Z,61.75
2023-04-18T12:49:01.542Z,63.72
2023-04-18T12:51:04.330Z,49.05
2023-04-18T12:53:06.950Z,66.65
2023-04-18T12:55:10.731Z,70.45
2023-04-18T12:57:15.922Z,84.72
2023-04-18T12:59:18.562Z,64.78
2023-04-18T13:01:22.226Z,80.72
2023-04-18T13:03:27.495Z,53.55
2023-04-18T13:05:33.594Z,78.05
2023-04-18T13:07:40.693Z,56.38
2023-04-18T13:09:43.246Z,79.82
2023-04-18T13:11:46.385Z,66.30
2023-04-18T13:13:52.828Z,63.33
2023-04-18T13:15:55.648Z,61.25
2023-04-18T13:17:58.338Z,55.75
2023-04-18T13:20:01.080Z,71.15
2023-04-18T13:22:04.855Z,68.22
2023-04-18T13:24:07.828Z,86.40
2023-04-18T13:26:10.549Z,148.57
2023-04-18T13:28:13.576Z,67.30
2023-04-18T13:30:19.224Z,65.43
2023-04-18T13:32:21.949Z,72.30
2023-04-18T13:34:24.516Z,67.30
2023-04-18T13:36:27.892Z,106.55
2023-04-18T13:38:31.019Z,71.00
2023-04-18T13:40:33.692Z,64.90
2023-04-18T13:42:37.375Z,81.68
2023-04-18T13:44:40.021Z,84.32
2023-04-18T13:46:46.579Z,66.05
2023-04-18T13:48:49.585Z,81.03
2023-04-18T13:50:53.846Z,101.65
2023-04-18T13:52:56.429Z,81.85
2023-04-18T13:54:59.003Z,67.10
2023-04-18T13:57:03.443Z,80.38
2023-04-18T13:59:06.106Z,70.22
2023-04-18T14:01:08.695Z,88.95
2023-04-18T14:03:14.630Z,87.43
2023-04-18T14:05:17.310Z,68.72
2023-04-18T14:07:19.706Z,99.15
2023-04-18T14:09:22.393Z,55.90
2023-04-18T14:11:24.947Z,113.32
2023-04-18T14:13:27.492Z,105.82
2023-04-18T14:15:30.849Z,80.75
2023-04-18T14:17:33.469Z,89.23
2023-04-18T14:19:38.662Z,66.38
2023-04-18T14:21:41.086Z,78.40
2023-04-18T14:23:44.008Z,65.57
2023-04-18T14:25:46.935Z,65.50
2023-04-18T14:27:50.328Z,82.32
2023-04-18T14:29:52.906Z,121.88
2023-04-18T14:31:56.112Z,83.10
2023-04-18T14:34:00.838Z,113.37
2023-04-18T14:36:07.263Z,94.78
2023-04-18T14:38:10.055Z,81.70
2023-04-18T14:40:12.929Z,136.57
2023-04-18T14:42:16.222Z,52.15
2023-04-18T14:44:18.793Z,53.15
2023-04-18T14:46:21.708Z,89.22
2023-04-18T14:48:24.363Z,72.82
2023-04-18T14:50:27.649Z,55.10
2023-04-18T14:52:32.808Z,67.97
2023-04-18T14:54:35.435Z,79.18
2023-04-18T14:56:38.106Z,95.40
2023-04-18T14:58:43.146Z,140.68
2023-04-18T15:00:45.755Z,118.95
2023-04-18T15:02:48.542Z,77.97
2023-04-18T15:04:53.441Z,85.25
2023-04-18T15:06:56.620Z,75.68
2023-04-18T15:09:02.356Z,124.75
2023-04-18T15:11:06.874Z,114.65
2023-04-18T15:13:09.522Z,94.47
2023-04-18T15:15:12.469Z,176.27
2023-04-18T15:17:14.951Z,161.75
2023-04-18T15:19:17.495Z,155.35
2023-04-18T15:21:19.905Z,113.95
2023-04-18T15:23:22.481Z,121.85
2023-04-18T15:25:27.652Z,116.68
2023-04-18T15:27:30.523Z,84.63
2023-04-18T15:29:32.985Z,62.35
2023-04-18T15:31:36.691Z,67.97
2023-04-18T15:33:41.212Z,55.92
2023-04-18T15:35:44.788Z,64.40
2023-04-18T15:37:49.739Z,73.57
2023-04-18T15:39:53.332Z,55.63
2023-04-18T15:41:58.412Z,84.55
2023-04-18T15:44:00.779Z,106.13
2023-04-18T15:46:04.355Z,140.77
2023-04-18T15:48:07.170Z,116.05
2023-04-18T15:50:10.408Z,67.07
2023-04-18T15:52:16.039Z,56.17
2023-04-18T15:54:18.729Z,85.47
2023-04-18T15:56:21.352Z,93.20
2023-04-18T15:58:30.192Z,91.40
2023-04-18T16:00:32.905Z,97.63
2023-04-18T16:02:35.594Z,85.85
2023-04-18T16:04:38.159Z,98.45
2023-04-18T16:06:41.705Z,92.03
2023-04-18T16:08:44.193Z,91.57
2023-04-18T16:10:48.297Z,95.40
2023-04-18T16:15:01.667Z,68.88
2023-04-18T16:17:04.246Z,36.88
2023-04-18T16:19:09.695Z,77.97
2023-04-18T16:21:13.690Z,75.80
2023-04-18T16:23:16.409Z,91.47
2023-04-18T16:25:19.344Z,62.47
2023-04-18T16:27:22.205Z,62.78
2023-04-18T16:29:24.767Z,57.92
2023-04-18T16:31:30.023Z,72.43
2023-04-18T16:33:32.766Z,91.60
2023-04-18T16:35:35.425Z,76.97
2023-04-18T16:37:38.311Z,76.50
2023-04-18T16:39:41.918Z,58.13
2023-04-18T16:41:44.340Z,59.25
2023-04-18T16:43:46.776Z,96.53
2023-04-18T16:45:49.390Z,99.68
2023-04-18T16:47:54.659Z,99.57
2023-04-18T16:49:57.406Z,107.03
2023-04-18T16:51:59.936Z,63.08
2023-04-18T16:54:02.467Z,105.25
2023-04-18T16:56:06.763Z,63.25
2023-04-18T16:58:09.270Z,44.70
2023-04-18T17:00:13.811Z,78.38
2023-04-18T17:02:16.524Z,68.72
2023-04-18T17:04:21.812Z,55.42
2023-04-18T17:06:25.079Z,78.18
2023-04-18T17:08:29.191Z,74.07
2023-04-18T17:10:32.220Z,67.00
2023-04-18T17:12:34.808Z,55.15
2023-04-18T17:14:37.368Z,58.13
2023-04-18T17:16:41.002Z,80.75
2023-04-18T17:18:43.652Z,57.90
2023-04-18T17:20:48.784Z,51.80
2023-04-18T17:22:51.468Z,72.88
2023-04-18T17:24:53.963Z,60.40
2023-04-18T17:26:57.883Z,58.22
2023-04-18T17:29:06.768Z,69.93
2023-04-18T17:31:13.253Z,52.30
2023-04-18T17:33:15.849Z,75.53
2023-04-18T17:35:18.588Z,51.60
2023-04-18T17:37:23.822Z,58.42
2023-04-18T17:39:27.146Z,59.70
2023-04-18T17:41:29.709Z,52.97
2023-04-18T17:43:32.271Z,42.53
2023-04-18T17:45:34.897Z,47.97
2023-04-18T17:47:37.728Z,37.75
2023-04-18T17:49:40.409Z,41.50
2023-04-18T17:51:42.960Z,36.53
2023-04-18T17:53:47.969Z,30.77
2023-04-18T17:55:52.402Z,21.00
2023-04-18T17:57:54.878Z,23.10
2023-04-18T17:59:57.346Z,24.25
2023-04-18T18:01:59.886Z,24.42
2023-04-18T18:04:02.800Z,19.70
2023-04-18T18:06:05.672Z,19.40
2023-04-18T18:08:08.394Z,16.35
2023-04-18T18:10:15.299Z,17.80
2023-04-18T18:12:17.908Z,14.45
2023-04-18T18:14:20.507Z,19.25
2023-04-18T18:16:24.133Z,21.98
2023-04-18T18:18:27.024Z,20.60
2023-04-18T18:20:30.959Z,15.05
2023-04-18T18:22:33.458Z,16.20
2023-04-18T18:24:36.139Z,16.88
2023-04-18T18:26:41.314Z,16.25
2023-04-18T18:28:43.882Z,16.02
2023-04-18T18:30:46.440Z,15.43
2023-04-18T18:32:49.813Z,14.35
2023-04-18T18:34:52.417Z,12.98
2023-04-18T18:36:54.850Z,11.90
2023-04-18T18:38:59.505Z,14.50
2023-04-18T18:41:03.752Z,11.20
2023-04-18T18:43:09.057Z,11.57
2023-04-18T18:45:11.983Z,10.40
2023-04-18T18:47:14.615Z,10.85
2023-04-18T18:49:17.258Z,12.63
2023-04-18T18:51:19.897Z,11.20
2023-04-18T18:53:22.880Z,9.57
2023-04-18T18:55:25.456Z,9.43
2023-04-18T18:57:28.158Z,11.02
2023-04-18T18:59:33.290Z,9.57
2023-04-18T19:01:35.849Z,14.85
2023-04-18T19:03:38.686Z,8.55
2023-04-18T19:05:41.424Z,10.27
2023-04-18T19:07:43.930Z,8.65
2023-04-18T19:09:47.499Z,9.80
2023-04-18T19:11:51.397Z,9.75
2023-04-18T19:13:54.199Z,13.23
2023-04-18T19:15:59.285Z,10.00
2023-04-18T19:18:04.489Z,9.55
2023-04-18T19:20:09.188Z,9.75
2023-04-18T19:22:11.672Z,10.73
2023-04-18T19:24:14.253Z,9.02
2023-04-18T19:26:16.887Z,9.40
2023-04-18T19:28:19.439Z,14.55
2023-04-18T19:30:25.242Z,8.63
2023-04-18T19:32:32.015Z,9.57
2023-04-18T19:34:34.613Z,12.27
2023-04-18T19:36:37.354Z,8.55
2023-04-18T19:38:40.081Z,11.55
2023-04-18T19:40:43.111Z,9.52
2023-04-18T19:42:46.396Z,10.73
2023-04-18T19:44:48.886Z,10.73
2023-04-18T19:46:51.499Z,9.80
2023-04-18T19:48:56.626Z,8.32
2023-04-18T19:51:01.628Z,13.63
2023-04-18T19:53:04.257Z,8.52
2023-04-18T19:55:07.954Z,7.90
2023-04-18T19:57:10.674Z,7.60
2023-04-18T19:59:13.511Z,6.93
2023-04-18T20:01:17.829Z,9.68
2023-04-18T20:03:20.491Z,8.32
2023-04-18T20:05:25.871Z,8.60
2023-04-18T20:07:28.464Z,9.77
2023-04-18T20:09:30.934Z,6.75
2023-04-18T20:11:33.614Z,6.70
2023-04-18T20:13:37.635Z,9.45
2023-04-18T20:15:40.673Z,7.32
2023-04-18T20:17:43.204Z,8.10
2023-04-18T20:19:47.372Z,6.85
2023-04-18T20:21:55.667Z,7.03
2023-04-18T20:23:59.343Z,9.25
2023-04-18T20:26:03.024Z,9.88
2023-04-18T20:28:06.509Z,9.82
2023-04-18T20:30:09.707Z,6.82
2023-04-18T20:32:12.173Z,6.75
2023-04-18T20:34:15.114Z,10.80
2023-04-18T20:36:20.773Z,8.52
2023-04-18T20:38:29.916Z,8.80
2023-04-18T20:40:34.080Z,6.53
2023-04-18T20:42:39.784Z,8.32
2023-04-18T20:44:46.963Z,7.57
2023-04-18T20:46:49.813Z,8.05
2023-04-18T20:48:52.357Z,7.35
2023-04-18T20:50:54.862Z,8.30
2023-04-18T20:53:00.662Z,8.55
2023-04-18T20:55:06.963Z,7.40
2023-04-18T20:57:09.706Z,7.78
2023-04-18T20:59:12.423Z,8.52
2023-04-18T21:01:15.082Z,6.85
2023-04-18T21:03:17.717Z,8.77
2023-04-18T21:05:20.597Z,8.20
2023-04-18T21:07:27.206Z,8.85
2023-04-18T21:09:31.132Z,10.82
2023-04-18T21:11:36.428Z,10.48
2023-04-18T21:13:39.798Z,10.05
2023-04-18T21:15:42.867Z,10.05
2023-04-18T21:17:45.520Z,10.32
2023-04-18T21:19:49.050Z,10.85
2023-04-18T21:21:51.690Z,8.38
2023-04-18T21:23:54.574Z,8.82
2023-04-18T21:25:57.202Z,11.77
2023-04-18T21:28:02.608Z,10.02
2023-04-18T21:30:09.220Z,9.50
2023-04-18T21:32:14.241Z,12.43
2023-04-18T21:34:19.137Z,10.02
2023-04-18T21:36:21.894Z,11.00
2023-04-18T21:38:25.658Z,10.27
2023-04-18T21:40:31.044Z,9.02
2023-04-18T21:42:35.347Z,8.75
2023-04-18T21:46:42.839Z,8.63
2023-04-18T21:48:46.996Z,8.52
2023-04-18T21:50:54.954Z,8.25
2023-04-18T21:53:00.253Z,12.80
2023-04-18T21:55:03.643Z,9.80
2023-04-18T21:57:06.871Z,8.37
2023-04-18T21:59:09.734Z,10.20
2023-04-18T22:01:14.873Z,9.50
2023-04-18T22:03:17.690Z,8.55
2023-04-18T22:05:33.745Z,10.80
2023-04-18T22:07:43.304Z,9.23
2023-04-18T22:09:50.434Z,10.35
2023-04-18T22:11:57.083Z,9.90
2023-04-18T22:14:00.572Z,10.23
2023-04-18T22:16:03.774Z,10.27
2023-04-18T22:18:09.461Z,11.43
2023-04-18T22:20:13.157Z,8.90
2023-04-18T22:22:19.213Z,9.93
2023-04-18T22:24:26.129Z,10.48
2023-04-18T22:26:29.023Z,9.88
2023-04-18T22:28:34.250Z,10.13
2023-04-18T22:30:37.093Z,11.00
2023-04-18T22:32:42.191Z,11.32
2023-04-18T22:34:47.506Z,8.18
2023-04-18T22:36:50.102Z,7.85
2023-04-18T22:38:52.737Z,10.15
2023-04-18T22:40:55.473Z,8.80
2023-04-18T22:43:00.562Z,9.80
2023-04-18T22:45:08.113Z,8.30
2023-04-18T22:47:13.606Z,9.95
2023-04-18T22:49:18.109Z,7.65
2023-04-18T22:53:28.694Z,7.15
2023-04-18T22:55:33.227Z,8.25
2023-04-18T22:57:36.276Z,8.23
2023-04-18T22:59:39.373Z,8.50
2023-04-18T23:01:41.935Z,9.25
2023-04-18T23:03:44.935Z,8.65
2023-04-18T23:05:52.759Z,8.15
2023-04-18T23:08:00.198Z,10.52
2023-04-18T23:10:06.633Z,8.40
2023-04-18T23:12:10.815Z,7.88
2023-04-18T23:14:15.986Z,9.30
2023-04-18T23:16:18.849Z,9.02
2023-04-18T23:18:21.629Z,9.13
2023-04-18T23:20:28.779Z,7.45
2023-04-18T23:22:39.448Z,8.13
2023-04-18T23:24:44.829Z,7.57
2023-04-18T23:26:47.358Z,8.05
2023-04-18T23:28:55.573Z,9.15
2023-04-18T23:30:58.044Z,10.07
2023-04-18T23:33:02.442Z,10.73
2023-04-18T23:35:06.230Z,8.77
2023-04-18T23:37:11.953Z,10.05
2023-04-18T23:39:21.716Z,10.20
2023-04-18T23:41:36.283Z,9.40
2023-04-18T23:43:40.331Z,8.50
2023-04-18T23:45:42.820Z,9.45
2023-04-18T23:47:45.458Z,9.57
2023-04-18T23:49:47.999Z,9.43
2023-04-18T23:51:50.894Z,10.77
2023-04-18T23:53:53.475Z,9.02
2023-04-18T23:55:56.264Z,10.18
2023-04-18T23:58:01.568Z,8.50
